Pisgah, South Carolina
Current Conditions -  °F | °C
As of 6:53 PM on Friday 28 Nov 2014 (Local Time) from KSSC Reporting Station
Clear Clear  
Wind Chill: 37°   Ceiling: Unl
Heat Index: 37°   Visibility: 8mi
Dew Point: 28°   Wind: 3mph
Humidity: 70%   Direction: 230°SW
Pressure: 30.31"   Gusts: NA
Location:  34.1106°N, 80.4967°W
Report Text: KSSC 282353Z AUTO 23003KT 8SM R04/5500FT CLR 03/M02 A3031 RMK AO2
Loading
Personal Weather Stations






























Interactive Weather Map New forecast layout! Learn more

10-Day Weather Forecast

Advertisements
Track Severe Weather on mobile